• Join FlightAware (Why Join?)
  • Login
  • US Flag 
02:45AM EDT


 

Airport Tracker/Info


-or-


 

Live Flight TrackerFlight Track Log ✈ DAL1032 ✈ 05-May-2012 ✈ KATL - KSDF

Flight Track Log - Related Links

Times and Time Zones

All times are in EDT time to prevent confusion due to time zone crossing. See the DAL1032 flight status page for this flight to view local times or setup timezone preferences in your user account.

Time Position Orientation Groundspeed Altitude Reporting Facility
EDT Latitude Longitude Course Direction KTS MPH feet Rate Location/Type
12:17PM 33.6500 -84.4667 301° West 164 189 3,200  Level Atlanta TRACON
12:18PM 33.6833 -84.5333 320° Northwest 239 275 5,500 3,000 Climbing Atlanta TRACON
12:19PM 33.7333 -84.5833 360° North 279 321 9,200 2,760 Climbing Atlanta TRACON
12:21PM 33.8933 -84.5844 358° North 300 345 13,500 2,340 Climbing Atlanta Center
12:22PM 33.9831 -84.5875 360° North 330 380 16,100 2,580 Climbing Atlanta Center
12:23PM 34.0853 -84.5881 359° North 348 400 18,700 2,460 Climbing Atlanta Center
12:24PM 34.2000 -84.5914 356° North 395 455 21,100 2,280 Climbing Atlanta Center
12:25PM 34.3272 -84.6022 346° North 405 466 23,300 2,100 Climbing Atlanta Center
12:26PM 34.4397 -84.6358 349° North 410 472 25,400 1,800 Climbing Atlanta Center
12:27PM 34.5586 -84.6642 348° North 420 483 27,000 1,320 Climbing Atlanta Center
12:28PM 34.6669 -84.6928 353° North 437 503 28,100 1,560 Climbing Atlanta Center
12:29PM 34.7922 -84.7117 357° North 444 511 30,200 1,740 Climbing Atlanta Center
12:30PM 34.9194 -84.7203 356° North 444 511 31,600 900 Climbing Atlanta Center
12:31PM 35.0467 -84.7314 356° North 444 511 32,000 180 Climbing Atlanta Center
12:32PM 35.1739 -84.7425 357° North 449 517 32,000  Level Atlanta Center
12:33PM 35.3031 -84.7514 356° North 455 524 32,000  Level Atlanta Center
12:34PM 35.4303 -84.7625 356° North 461 531 32,100  Climbing Atlanta Center
12:35PM 35.5617 -84.7739 357° North 461 531 32,000 -60 Descending Atlanta Center
12:36PM 35.6869 -84.7828 356° North 461 531 32,000 -240 Level Atlanta Center
12:38PM 35.9067 -84.8003 356° North 461 531 31,500 -780 Descending Indianapolis Center
12:39PM 36.0400 -84.8128 355° North 461 531 30,000 -780 Descending Indianapolis Center
12:40PM 36.1650 -84.8250 356° North 461 531 30,000  Level Indianapolis Center
12:41PM 36.2919 -84.8350 356° North 461 531 30,000  Level Indianapolis Center
12:42PM 36.4192 -84.8472 356° North 461 531 30,000 -480 Level Indianapolis Center
12:43PM 36.5464 -84.8572 355° North 461 531 29,100 -960 Descending Indianapolis Center
12:44PM 36.6733 -84.8697 356° North 461 531 28,100 -2,100 Descending Indianapolis Center
12:45PM 36.7964 -84.8797 355° North 461 531 24,900 -2,100 Descending Indianapolis Center
12:46PM 36.9194 -84.8922 357° North 450 518 24,000 -480 Descending Indianapolis Center
12:47PM 37.0528 -84.8997 355° North 438 504 24,000 -900 Level Indianapolis Center
12:48PM 37.1672 -84.9122 357° North 426 490 22,200 -2,520 Descending Indianapolis Center
12:49PM 37.2819 -84.9194 356° North 406 467 19,000 -3,000 Descending Indianapolis Center
12:50PM 37.3883 -84.9294 356° North 393 452 16,300 -2,820 Descending Indianapolis Center
12:51PM 37.4903 -84.9392 356° North 369 425 13,400 -2,340 Descending Indianapolis Center
12:52PM 37.5861 -84.9486 353° North 351 404 11,700 -1,200 Descending Indianapolis Center
12:53PM 37.6611 -84.9606 312° West 324 373 11,000 -480 Descending Indianapolis Center
12:54PM 37.7125 -85.0325 312° West 273 314 10,800 -360 Descending Indianapolis Center
12:55PM 37.7636 -85.1044 314° West 273 314 10,300 -600 Descending Indianapolis Center
12:56PM 37.8169 -85.1739 294° West 279 321 9,600 -1,200 Descending Indianapolis Center
12:57PM 37.8469 -85.2586 295° West 274 315 8,000 -1,920 Descending Indianapolis Center
12:58PM 37.8797 -85.3486 294° West 271 312 5,800 -1,980 Descending FAA TRACON SMA TRACON (SMA)
12:59PM 37.9006 -85.4086 295° West 270 311 4,800 -1,380 Descending FAA TRACON SMA TRACON (SMA)
12:59PM 37.9214 -85.4653 294° West 256 295 4,000 -900 Descending FAA TRACON SMA TRACON (SMA)
01:00PM 37.9394 -85.5178 295° West 231 266 3,600 -540 Descending FAA TRACON SMA TRACON (SMA)
01:01PM 37.9550 -85.5606 294° West 217 250 3,300 -480 Descending FAA TRACON SMA TRACON (SMA)
01:01PM 37.9722 -85.6092 294° West 218 251 3,000 -480 Descending FAA TRACON SMA TRACON (SMA)
01:02PM 37.9872 -85.6522 332° Northwest 217 250 2,700 -420 Descending FAA TRACON SMA TRACON (SMA)
01:03PM 38.0189 -85.6733 344° North 192 221 2,500 -180 Descending FAA TRACON SMA TRACON (SMA)
01:03PM 38.0514 -85.6850 345° North 174 200 2,500 -300 Level FAA TRACON SMA TRACON (SMA)
01:04PM 38.0850 -85.6961 345° North 181 208 2,100 -840 Descending FAA TRACON SMA TRACON (SMA)
01:05PM 38.1150 -85.7067 345° North 156 180 1,400 -780 Descending FAA TRACON SMA TRACON (SMA)
01:05PM 38.1361 -85.7139 345° North 127 146 1,100 -660 Descending FAA TRACON SMA TRACON (SMA)
01:06PM 38.1575 -85.7211 345° North 127 146 600 -780 Descending FAA TRACON SMA TRACON (SMA)